createdAt,value
2023-08-23T01:00:16.499Z,0.00
2023-08-23T01:01:51.141Z,0.00
2023-08-23T01:03:52.605Z,0.00
2023-08-23T01:06:27.433Z,0.00
2023-08-23T01:08:30.515Z,0.00
2023-08-23T02:46:54.515Z,0.00
2023-08-23T03:20:08.119Z,0.00
2023-08-23T03:22:41.781Z,0.00
2023-08-23T03:34:09.052Z,0.00
2023-08-23T03:36:42.868Z,0.00
2023-08-23T03:38:14.004Z,0.00
2023-08-23T03:40:16.369Z,0.00
2023-08-23T03:41:47.486Z,0.00
2023-08-23T03:43:18.652Z,0.00
2023-08-23T03:45:22.078Z,0.00
2023-08-23T03:47:27.545Z,0.00
2023-08-23T06:23:52.672Z,0.00
2023-08-23T06:25:23.876Z,0.00
2023-08-23T06:26:55.980Z,0.00
2023-08-23T06:28:30.027Z,0.00
2023-08-23T06:31:02.650Z,0.00
2023-08-23T06:52:26.047Z,0.00
2023-08-23T06:54:29.166Z,0.00
2023-08-23T06:56:01.311Z,0.00
2023-08-23T06:58:46.217Z,0.00
2023-08-23T07:00:18.397Z,0.00
2023-08-23T07:02:53.139Z,0.00
2023-08-23T07:04:55.331Z,0.00
2023-08-23T07:06:26.471Z,0.00
2023-08-23T07:07:58.664Z,0.00
2023-08-23T07:10:07.805Z,0.00
2023-08-23T07:11:34.520Z,0.00
2023-08-23T07:13:38.154Z,0.00
2023-08-23T07:15:09.317Z,0.00
2023-08-23T07:16:40.596Z,0.00
2023-08-23T07:18:12.033Z,0.00
2023-08-23T07:20:07.837Z,0.00
2023-08-23T07:25:08.684Z,0.00
2023-08-23T07:27:42.181Z,0.00
2023-08-23T07:29:14.777Z,0.00
2023-08-23T07:51:37.558Z,0.00
2023-08-23T07:56:30.057Z,0.00
2023-08-23T07:58:03.581Z,0.00
2023-08-23T08:00:07.198Z,0.00
2023-08-23T08:10:35.259Z,0.00
2023-08-23T08:12:38.070Z,0.00
2023-08-23T08:15:46.455Z,0.00
2023-08-23T08:17:19.544Z,0.00
2023-08-23T08:18:50.712Z,0.00
2023-08-23T08:21:54.986Z,0.00
2023-08-23T08:23:26.706Z,0.00
2023-08-23T08:24:57.964Z,0.00
2023-08-23T08:26:29.038Z,0.00
2023-08-23T08:28:00.225Z,0.00
2023-08-23T08:29:32.717Z,0.00
2023-08-23T08:31:04.900Z,0.00
2023-08-23T08:33:09.986Z,0.00
2023-08-23T08:36:15.124Z,0.00
2023-08-23T08:37:47.639Z,0.00
2023-08-23T08:39:18.759Z,0.00
2023-08-23T09:00:10.981Z,0.00
2023-08-23T09:01:45.520Z,0.00
2023-08-23T09:04:18.281Z,196.88
2023-08-23T09:06:21.010Z,196.88
2023-08-23T09:08:57.791Z,202.50
2023-08-23T09:14:17.381Z,208.12
2023-08-23T09:19:06.998Z,213.75
2023-08-23T10:46:31.028Z,2733.75
2023-08-23T10:48:37.122Z,2851.88
2023-08-23T11:39:45.977Z,1209.38
2023-08-23T11:58:10.305Z,354.38
2023-08-23T12:39:45.321Z,0.00
2023-08-23T12:41:17.347Z,360.00
2023-08-23T12:42:47.639Z,343.12
2023-08-23T12:46:24.553Z,320.62
2023-08-23T12:47:57.465Z,315.00
2023-08-23T13:51:14.813Z,241.88
2023-08-23T13:52:59.304Z,241.88
2023-08-23T13:54:30.912Z,236.25
2023-08-23T13:56:02.353Z,236.25
2023-08-23T14:01:28.349Z,225.00
2023-08-23T14:47:04.096Z,0.00
2023-08-23T14:48:35.264Z,0.00
2023-08-23T14:52:56.628Z,0.00
2023-08-23T14:55:09.959Z,0.00
2023-08-23T14:56:41.072Z,0.00
2023-08-23T14:58:13.423Z,0.00
2023-08-23T15:00:15.814Z,0.00
2023-08-23T15:03:21.908Z,0.00
2023-08-23T15:04:52.990Z,0.00
2023-08-23T15:06:24.093Z,0.00
2023-08-23T15:07:55.269Z,0.00
2023-08-23T15:59:50.422Z,0.00
2023-08-23T16:10:15.722Z,0.00
2023-08-23T16:12:19.544Z,0.00
2023-08-23T16:14:53.895Z,0.00
2023-08-23T18:56:37.143Z,0.00
2023-08-23T18:59:25.138Z,0.00
2023-08-23T19:00:56.310Z,0.00
2023-08-23T19:02:27.497Z,0.00
2023-08-23T19:03:58.740Z,0.00
2023-08-23T19:06:02.006Z,0.00
2023-08-23T19:08:35.547Z,0.00
2023-08-23T19:10:06.695Z,0.00
2023-08-23T19:11:37.901Z,0.00
2023-08-23T19:20:33.342Z,0.00
2023-08-23T19:51:50.598Z,0.00
2023-08-23T19:53:53.335Z,0.00
2023-08-23T19:55:24.472Z,0.00
2023-08-23T19:56:55.630Z,0.00
2023-08-23T20:59:45.445Z,0.00
2023-08-23T21:11:15.386Z,0.00
2023-08-23T21:14:54.573Z,0.00
2023-08-23T21:16:58.002Z,0.00
2023-08-23T21:19:01.825Z,0.00
2023-08-23T21:50:34.540Z,0.00
2023-08-23T21:52:06.406Z,0.00
2023-08-23T21:53:37.657Z,0.00
2023-08-23T21:55:10.117Z,0.00
2023-08-23T21:56:41.646Z,0.00
2023-08-23T21:58:12.697Z,0.00
2023-08-23T22:28:47.112Z,0.00
2023-08-23T22:30:49.447Z,0.00
2023-08-23T22:32:51.820Z,0.00
2023-08-23T23:03:33.526Z,0.00
2023-08-23T23:05:04.791Z,0.00
2023-08-23T23:06:35.920Z,0.00
2023-08-23T23:08:06.617Z,0.00
2023-08-23T23:10:41.722Z,0.00
2023-08-23T23:12:45.867Z,0.00
2023-08-23T23:14:49.707Z,0.00
2023-08-23T23:16:20.882Z,0.00
2023-08-23T23:18:23.699Z,0.00
2023-08-23T23:38:39.213Z,0.00
2023-08-23T23:41:00.028Z,0.00
2023-08-23T23:43:41.911Z,0.00
2023-08-23T23:45:54.374Z,0.00
2023-08-23T23:48:15.715Z,0.00
2023-08-23T23:50:10.933Z,0.00
2023-08-23T23:57:34.062Z,0.00
